sensor_id;sensor_type;location;lat;lon;timestamp;P1;durP1;ratioP1;P2;durP2;ratioP2
10045;SDS011;5063;50.878;4.742;2023-05-07T00:01:45;7.50;;;5.80;;
10045;SDS011;5063;50.878;4.742;2023-05-07T00:04:11;6.97;;;5.80;;
10045;SDS011;5063;50.878;4.742;2023-05-07T00:06:36;6.20;;;5.23;;
10045;SDS011;5063;50.878;4.742;2023-05-07T00:09:02;8.13;;;5.80;;
10045;SDS011;5063;50.878;4.742;2023-05-07T00:11:29;5.03;;;4.60;;
10045;SDS011;5063;50.878;4.742;2023-05-07T00:13:55;8.97;;;4.67;;
10045;SDS011;5063;50.878;4.742;2023-05-07T00:16:20;6.10;;;4.63;;
10045;SDS011;5063;50.878;4.742;2023-05-07T00:18:46;7.27;;;4.90;;
10045;SDS011;5063;50.878;4.742;2023-05-07T00:21:12;6.27;;;4.97;;
10045;SDS011;5063;50.878;4.742;2023-05-07T00:23:38;5.77;;;4.87;;
10045;SDS011;5063;50.878;4.742;2023-05-07T00:26:03;7.13;;;4.83;;
10045;SDS011;5063;50.878;4.742;2023-05-07T00:28:29;6.00;;;4.90;;
10045;SDS011;5063;50.878;4.742;2023-05-07T00:30:55;7.10;;;4.77;;
10045;SDS011;5063;50.878;4.742;2023-05-07T00:33:21;5.10;;;4.60;;
10045;SDS011;5063;50.878;4.742;2023-05-07T00:35:47;7.50;;;4.50;;
10045;SDS011;5063;50.878;4.742;2023-05-07T00:38:13;5.20;;;4.70;;
10045;SDS011;5063;50.878;4.742;2023-05-07T00:40:39;6.33;;;5.20;;
10045;SDS011;5063;50.878;4.742;2023-05-07T00:43:05;5.43;;;4.87;;
10045;SDS011;5063;50.878;4.742;2023-05-07T00:45:32;6.07;;;5.00;;
10045;SDS011;5063;50.878;4.742;2023-05-07T00:47:59;6.30;;;5.07;;
10045;SDS011;5063;50.878;4.742;2023-05-07T00:50:26;9.07;;;5.23;;
10045;SDS011;5063;50.878;4.742;2023-05-07T00:52:53;6.10;;;5.50;;
10045;SDS011;5063;50.878;4.742;2023-05-07T00:55:20;8.17;;;5.53;;
10045;SDS011;5063;50.878;4.742;2023-05-07T00:57:46;7.63;;;6.03;;
10045;SDS011;5063;50.878;4.742;2023-05-07T01:00:12;8.20;;;6.40;;
10045;SDS011;5063;50.878;4.742;2023-05-07T01:02:41;8.03;;;6.07;;
10045;SDS011;5063;50.878;4.742;2023-05-07T01:05:08;7.40;;;6.07;;
10045;SDS011;5063;50.878;4.742;2023-05-07T01:07:37;8.23;;;6.67;;
10045;SDS011;5063;50.878;4.742;2023-05-07T01:10:05;8.47;;;6.30;;
10045;SDS011;5063;50.878;4.742;2023-05-07T01:12:32;7.77;;;6.53;;
10045;SDS011;5063;50.878;4.742;2023-05-07T01:14:59;6.87;;;6.13;;
10045;SDS011;5063;50.878;4.742;2023-05-07T01:17:26;8.40;;;6.67;;
10045;SDS011;5063;50.878;4.742;2023-05-07T01:19:52;10.57;;;8.07;;
10045;SDS011;5063;50.878;4.742;2023-05-07T01:22:34;8.17;;;7.17;;
10045;SDS011;5063;50.878;4.742;2023-05-07T01:25:02;7.10;;;6.07;;
10045;SDS011;5063;50.878;4.742;2023-05-07T01:27:28;8.60;;;6.63;;
10045;SDS011;5063;50.878;4.742;2023-05-07T01:29:54;7.07;;;6.20;;
10045;SDS011;5063;50.878;4.742;2023-05-07T01:32:26;7.67;;;6.07;;
10045;SDS011;5063;50.878;4.742;2023-05-07T01:34:58;7.50;;;6.53;;
10045;SDS011;5063;50.878;4.742;2023-05-07T01:37:26;8.00;;;6.20;;
10045;SDS011;5063;50.878;4.742;2023-05-07T01:39:52;10.23;;;6.67;;
10045;SDS011;5063;50.878;4.742;2023-05-07T01:42:19;7.10;;;6.40;;
10045;SDS011;5063;50.878;4.742;2023-05-07T01:44:45;7.80;;;6.17;;
10045;SDS011;5063;50.878;4.742;2023-05-07T01:47:11;7.47;;;6.57;;
10045;SDS011;5063;50.878;4.742;2023-05-07T01:49:38;11.03;;;6.67;;
10045;SDS011;5063;50.878;4.742;2023-05-07T01:52:05;8.10;;;5.83;;
10045;SDS011;5063;50.878;4.742;2023-05-07T01:54:31;6.97;;;6.10;;
10045;SDS011;5063;50.878;4.742;2023-05-07T01:56:57;9.07;;;7.27;;
10045;SDS011;5063;50.878;4.742;2023-05-07T01:59:22;7.23;;;6.00;;
10045;SDS011;5063;50.878;4.742;2023-05-07T02:01:48;6.37;;;5.77;;
10045;SDS011;5063;50.878;4.742;2023-05-07T02:04:14;7.93;;;6.10;;
10045;SDS011;5063;50.878;4.742;2023-05-07T02:06:40;7.83;;;6.33;;
10045;SDS011;5063;50.878;4.742;2023-05-07T02:09:05;6.90;;;5.93;;
10045;SDS011;5063;50.878;4.742;2023-05-07T02:11:31;6.23;;;5.63;;
10045;SDS011;5063;50.878;4.742;2023-05-07T02:13:57;9.17;;;6.37;;
10045;SDS011;5063;50.878;4.742;2023-05-07T02:16:23;8.37;;;6.37;;
10045;SDS011;5063;50.878;4.742;2023-05-07T02:18:49;7.03;;;6.33;;
10045;SDS011;5063;50.878;4.742;2023-05-07T02:21:15;7.13;;;5.33;;
10045;SDS011;5063;50.878;4.742;2023-05-07T02:23:40;7.87;;;6.87;;
10045;SDS011;5063;50.878;4.742;2023-05-07T02:26:06;6.90;;;6.20;;
10045;SDS011;5063;50.878;4.742;2023-05-07T02:28:32;7.90;;;6.23;;
10045;SDS011;5063;50.878;4.742;2023-05-07T02:31:01;8.27;;;6.60;;
10045;SDS011;5063;50.878;4.742;2023-05-07T02:33:28;8.93;;;7.03;;
10045;SDS011;5063;50.878;4.742;2023-05-07T02:35:53;8.70;;;7.23;;
10045;SDS011;5063;50.878;4.742;2023-05-07T02:38:19;7.07;;;6.47;;
10045;SDS011;5063;50.878;4.742;2023-05-07T02:40:45;9.03;;;7.10;;
10045;SDS011;5063;50.878;4.742;2023-05-07T02:43:10;7.23;;;6.53;;
10045;SDS011;5063;50.878;4.742;2023-05-07T02:45:36;9.37;;;6.93;;
10045;SDS011;5063;50.878;4.742;2023-05-07T02:48:03;8.17;;;6.87;;
10045;SDS011;5063;50.878;4.742;2023-05-07T02:50:29;8.73;;;6.77;;
10045;SDS011;5063;50.878;4.742;2023-05-07T02:52:55;9.47;;;7.97;;
10045;SDS011;5063;50.878;4.742;2023-05-07T02:55:21;8.90;;;7.43;;
10045;SDS011;5063;50.878;4.742;2023-05-07T02:57:46;8.43;;;7.63;;
10045;SDS011;5063;50.878;4.742;2023-05-07T03:00:16;10.63;;;8.20;;
10045;SDS011;5063;50.878;4.742;2023-05-07T03:02:43;9.47;;;7.30;;
10045;SDS011;5063;50.878;4.742;2023-05-07T03:05:10;10.43;;;8.97;;
10045;SDS011;5063;50.878;4.742;2023-05-07T03:07:36;10.43;;;8.17;;
10045;SDS011;5063;50.878;4.742;2023-05-07T03:10:03;8.70;;;7.80;;
10045;SDS011;5063;50.878;4.742;2023-05-07T03:12:30;14.47;;;10.23;;
10045;SDS011;5063;50.878;4.742;2023-05-07T03:14:56;9.03;;;8.20;;
10045;SDS011;5063;50.878;4.742;2023-05-07T03:17:22;12.97;;;9.40;;
10045;SDS011;5063;50.878;4.742;2023-05-07T03:19:48;9.00;;;8.20;;
10045;SDS011;5063;50.878;4.742;2023-05-07T03:22:13;9.80;;;8.30;;
10045;SDS011;5063;50.878;4.742;2023-05-07T03:24:39;8.90;;;7.73;;
10045;SDS011;5063;50.878;4.742;2023-05-07T03:27:05;9.00;;;8.10;;
10045;SDS011;5063;50.878;4.742;2023-05-07T03:29:31;10.43;;;7.80;;
10045;SDS011;5063;50.878;4.742;2023-05-07T03:31:56;8.87;;;7.97;;
10045;SDS011;5063;50.878;4.742;2023-05-07T03:34:22;8.87;;;7.53;;
10045;SDS011;5063;50.878;4.742;2023-05-07T03:36:49;8.73;;;6.77;;
10045;SDS011;5063;50.878;4.742;2023-05-07T03:39:14;10.17;;;8.30;;
10045;SDS011;5063;50.878;4.742;2023-05-07T03:41:40;9.57;;;7.70;;
10045;SDS011;5063;50.878;4.742;2023-05-07T03:44:06;8.27;;;7.23;;
10045;SDS011;5063;50.878;4.742;2023-05-07T03:46:32;8.60;;;7.23;;
10045;SDS011;5063;50.878;4.742;2023-05-07T03:48:59;7.93;;;7.13;;
10045;SDS011;5063;50.878;4.742;2023-05-07T03:51:24;8.47;;;7.63;;
10045;SDS011;5063;50.878;4.742;2023-05-07T03:53:50;10.10;;;7.83;;
10045;SDS011;5063;50.878;4.742;2023-05-07T03:56:22;10.40;;;9.33;;
10045;SDS011;5063;50.878;4.742;2023-05-07T03:58:48;14.23;;;11.43;;
10045;SDS011;5063;50.878;4.742;2023-05-07T04:01:13;13.33;;;11.17;;
10045;SDS011;5063;50.878;4.742;2023-05-07T04:03:39;14.27;;;11.63;;
10045;SDS011;5063;50.878;4.742;2023-05-07T04:06:05;15.53;;;11.77;;
10045;SDS011;5063;50.878;4.742;2023-05-07T04:08:31;11.27;;;10.20;;
10045;SDS011;5063;50.878;4.742;2023-05-07T04:10:57;13.97;;;11.80;;
10045;SDS011;5063;50.878;4.742;2023-05-07T04:13:23;12.30;;;11.07;;
10045;SDS011;5063;50.878;4.742;2023-05-07T04:15:50;14.90;;;12.20;;
10045;SDS011;5063;50.878;4.742;2023-05-07T04:18:17;13.17;;;11.37;;
10045;SDS011;5063;50.878;4.742;2023-05-07T04:20:43;13.47;;;11.53;;
10045;SDS011;5063;50.878;4.742;2023-05-07T04:23:08;12.10;;;10.87;;
10045;SDS011;5063;50.878;4.742;2023-05-07T04:25:34;14.70;;;10.67;;
10045;SDS011;5063;50.878;4.742;2023-05-07T04:28:00;13.87;;;11.40;;
10045;SDS011;5063;50.878;4.742;2023-05-07T04:30:26;13.00;;;11.70;;
10045;SDS011;5063;50.878;4.742;2023-05-07T04:32:51;13.37;;;11.40;;
10045;SDS011;5063;50.878;4.742;2023-05-07T04:35:18;14.70;;;13.03;;
10045;SDS011;5063;50.878;4.742;2023-05-07T04:37:43;17.07;;;12.87;;
10045;SDS011;5063;50.878;4.742;2023-05-07T04:40:09;14.50;;;11.83;;
10045;SDS011;5063;50.878;4.742;2023-05-07T04:42:35;16.43;;;11.97;;
10045;SDS011;5063;50.878;4.742;2023-05-07T04:45:01;12.57;;;11.20;;
10045;SDS011;5063;50.878;4.742;2023-05-07T04:47:28;12.93;;;11.57;;
10045;SDS011;5063;50.878;4.742;2023-05-07T04:49:53;14.17;;;11.20;;
10045;SDS011;5063;50.878;4.742;2023-05-07T04:52:19;11.30;;;10.20;;
10045;SDS011;5063;50.878;4.742;2023-05-07T04:54:45;12.70;;;10.83;;
10045;SDS011;5063;50.878;4.742;2023-05-07T04:57:11;12.07;;;10.87;;
10045;SDS011;5063;50.878;4.742;2023-05-07T04:59:36;12.23;;;10.27;;
10045;SDS011;5063;50.878;4.742;2023-05-07T05:02:02;11.63;;;10.50;;
10045;SDS011;5063;50.878;4.742;2023-05-07T05:04:29;12.50;;;10.30;;
10045;SDS011;5063;50.878;4.742;2023-05-07T05:06:55;11.80;;;10.67;;
10045;SDS011;5063;50.878;4.742;2023-05-07T05:09:21;13.50;;;10.83;;
10045;SDS011;5063;50.878;4.742;2023-05-07T05:11:47;11.23;;;10.13;;
10045;SDS011;5063;50.878;4.742;2023-05-07T05:14:13;13.17;;;11.33;;
10045;SDS011;5063;50.878;4.742;2023-05-07T05:16:38;12.60;;;11.40;;
10045;SDS011;5063;50.878;4.742;2023-05-07T05:19:04;16.03;;;11.13;;
10045;SDS011;5063;50.878;4.742;2023-05-07T05:21:30;13.23;;;12.00;;
10045;SDS011;5063;50.878;4.742;2023-05-07T05:23:57;13.00;;;11.80;;
10045;SDS011;5063;50.878;4.742;2023-05-07T05:26:23;17.87;;;11.37;;
10045;SDS011;5063;50.878;4.742;2023-05-07T05:28:49;13.90;;;10.60;;
10045;SDS011;5063;50.878;4.742;2023-05-07T05:31:15;12.37;;;10.43;;
10045;SDS011;5063;50.878;4.742;2023-05-07T05:33:41;14.63;;;10.93;;
10045;SDS011;5063;50.878;4.742;2023-05-07T05:36:10;15.60;;;10.80;;
10045;SDS011;5063;50.878;4.742;2023-05-07T05:38:38;11.47;;;10.37;;
10045;SDS011;5063;50.878;4.742;2023-05-07T05:41:04;12.87;;;10.67;;
10045;SDS011;5063;50.878;4.742;2023-05-07T05:43:30;11.37;;;10.00;;
10045;SDS011;5063;50.878;4.742;2023-05-07T05:45:56;11.37;;;10.17;;
10045;SDS011;5063;50.878;4.742;2023-05-07T05:48:22;10.63;;;9.53;;
10045;SDS011;5063;50.878;4.742;2023-05-07T05:50:48;13.87;;;10.03;;
10045;SDS011;5063;50.878;4.742;2023-05-07T05:53:14;12.00;;;9.10;;
10045;SDS011;5063;50.878;4.742;2023-05-07T05:55:41;9.97;;;8.70;;
10045;SDS011;5063;50.878;4.742;2023-05-07T05:58:07;10.47;;;9.30;;
10045;SDS011;5063;50.878;4.742;2023-05-07T06:00:34;12.10;;;9.40;;
10045;SDS011;5063;50.878;4.742;2023-05-07T06:02:59;13.60;;;10.23;;
10045;SDS011;5063;50.878;4.742;2023-05-07T06:05:25;11.17;;;8.97;;
10045;SDS011;5063;50.878;4.742;2023-05-07T06:07:51;10.50;;;9.17;;
10045;SDS011;5063;50.878;4.742;2023-05-07T06:10:17;14.10;;;7.77;;
10045;SDS011;5063;50.878;4.742;2023-05-07T06:12:43;13.43;;;8.20;;
10045;SDS011;5063;50.878;4.742;2023-05-07T06:15:10;14.23;;;8.43;;
10045;SDS011;5063;50.878;4.742;2023-05-07T06:17:35;10.20;;;7.90;;
10045;SDS011;5063;50.878;4.742;2023-05-07T06:20:01;9.47;;;8.03;;
10045;SDS011;5063;50.878;4.742;2023-05-07T06:22:27;13.33;;;7.40;;
10045;SDS011;5063;50.878;4.742;2023-05-07T06:24:53;12.77;;;7.57;;
10045;SDS011;5063;50.878;4.742;2023-05-07T06:27:18;8.07;;;6.40;;
10045;SDS011;5063;50.878;4.742;2023-05-07T06:29:44;10.50;;;6.87;;
10045;SDS011;5063;50.878;4.742;2023-05-07T06:32:10;8.73;;;7.33;;
10045;SDS011;5063;50.878;4.742;2023-05-07T06:34:37;11.90;;;8.00;;
10045;SDS011;5063;50.878;4.742;2023-05-07T06:37:04;9.00;;;7.40;;
10045;SDS011;5063;50.878;4.742;2023-05-07T06:39:30;8.83;;;7.93;;
10045;SDS011;5063;50.878;4.742;2023-05-07T06:41:56;9.00;;;7.37;;
10045;SDS011;5063;50.878;4.742;2023-05-07T06:44:22;9.80;;;7.40;;
10045;SDS011;5063;50.878;4.742;2023-05-07T06:46:47;11.40;;;7.30;;
10045;SDS011;5063;50.878;4.742;2023-05-07T06:49:13;9.57;;;7.27;;
10045;SDS011;5063;50.878;4.742;2023-05-07T06:51:39;11.17;;;7.70;;
10045;SDS011;5063;50.878;4.742;2023-05-07T06:54:05;10.03;;;7.00;;
10045;SDS011;5063;50.878;4.742;2023-05-07T06:56:31;8.00;;;6.10;;
10045;SDS011;5063;50.878;4.742;2023-05-07T06:58:57;6.67;;;6.03;;
10045;SDS011;5063;50.878;4.742;2023-05-07T07:01:23;5.93;;;4.67;;
10045;SDS011;5063;50.878;4.742;2023-05-07T07:03:49;7.70;;;4.77;;
10045;SDS011;5063;50.878;4.742;2023-05-07T07:06:16;6.03;;;4.93;;
10045;SDS011;5063;50.878;4.742;2023-05-07T07:08:41;7.27;;;4.63;;
10045;SDS011;5063;50.878;4.742;2023-05-07T07:11:07;7.90;;;4.27;;
10045;SDS011;5063;50.878;4.742;2023-05-07T07:13:34;5.53;;;4.37;;
10045;SDS011;5063;50.878;4.742;2023-05-07T07:15:59;7.73;;;3.87;;
10045;SDS011;5063;50.878;4.742;2023-05-07T07:18:25;6.10;;;4.30;;
10045;SDS011;5063;50.878;4.742;2023-05-07T07:20:51;5.43;;;4.10;;
10045;SDS011;5063;50.878;4.742;2023-05-07T07:23:17;6.23;;;4.20;;
10045;SDS011;5063;50.878;4.742;2023-05-07T07:25:42;10.07;;;4.53;;
10045;SDS011;5063;50.878;4.742;2023-05-07T07:28:08;6.87;;;4.03;;
10045;SDS011;5063;50.878;4.742;2023-05-07T07:30:34;5.83;;;3.80;;
10045;SDS011;5063;50.878;4.742;2023-05-07T07:32:59;5.47;;;3.97;;
10045;SDS011;5063;50.878;4.742;2023-05-07T07:35:28;7.53;;;4.43;;
10045;SDS011;5063;50.878;4.742;2023-05-07T07:37:54;11.03;;;4.57;;
10045;SDS011;5063;50.878;4.742;2023-05-07T07:40:20;4.43;;;3.57;;
10045;SDS011;5063;50.878;4.742;2023-05-07T07:42:46;6.90;;;4.73;;
10045;SDS011;5063;50.878;4.742;2023-05-07T07:45:11;6.03;;;3.83;;
10045;SDS011;5063;50.878;4.742;2023-05-07T07:47:38;7.70;;;3.60;;
10045;SDS011;5063;50.878;4.742;2023-05-07T07:50:06;6.60;;;3.17;;
10045;SDS011;5063;50.878;4.742;2023-05-07T07:52:33;5.70;;;3.47;;
10045;SDS011;5063;50.878;4.742;2023-05-07T07:54:58;4.93;;;3.17;;
10045;SDS011;5063;50.878;4.742;2023-05-07T07:57:24;6.23;;;2.73;;
10045;SDS011;5063;50.878;4.742;2023-05-07T07:59:50;5.80;;;3.40;;
10045;SDS011;5063;50.878;4.742;2023-05-07T08:02:16;6.43;;;2.80;;
10045;SDS011;5063;50.878;4.742;2023-05-07T08:04:42;5.63;;;3.30;;
10045;SDS011;5063;50.878;4.742;2023-05-07T08:07:11;6.10;;;2.97;;
10045;SDS011;5063;50.878;4.742;2023-05-07T08:09:37;5.20;;;2.60;;
10045;SDS011;5063;50.878;4.742;2023-05-07T08:12:04;9.17;;;3.57;;
10045;SDS011;5063;50.878;4.742;2023-05-07T08:14:33;4.73;;;3.00;;
10045;SDS011;5063;50.878;4.742;2023-05-07T08:17:00;4.77;;;3.33;;
10045;SDS011;5063;50.878;4.742;2023-05-07T08:19:26;8.20;;;3.42;;
10045;SDS011;5063;50.878;4.742;2023-05-07T08:21:51;6.28;;;3.35;;
10045;SDS011;5063;50.878;4.742;2023-05-07T08:24:17;5.90;;;3.47;;
10045;SDS011;5063;50.878;4.742;2023-05-07T08:26:43;6.77;;;3.60;;
10045;SDS011;5063;50.878;4.742;2023-05-07T08:29:10;7.27;;;3.70;;
10045;SDS011;5063;50.878;4.742;2023-05-07T08:31:36;7.37;;;4.13;;
10045;SDS011;5063;50.878;4.742;2023-05-07T08:34:03;6.82;;;3.83;;
10045;SDS011;5063;50.878;4.742;2023-05-07T08:36:30;6.47;;;3.22;;
10045;SDS011;5063;50.878;4.742;2023-05-07T08:38:55;9.07;;;3.73;;
10045;SDS011;5063;50.878;4.742;2023-05-07T08:41:21;7.78;;;3.65;;
10045;SDS011;5063;50.878;4.742;2023-05-07T08:43:48;6.32;;;3.33;;
10045;SDS011;5063;50.878;4.742;2023-05-07T08:46:18;6.18;;;3.53;;
10045;SDS011;5063;50.878;4.742;2023-05-07T08:48:50;5.80;;;3.85;;
10045;SDS011;5063;50.878;4.742;2023-05-07T08:51:20;6.07;;;3.67;;
10045;SDS011;5063;50.878;4.742;2023-05-07T08:53:47;5.60;;;3.35;;
10045;SDS011;5063;50.878;4.742;2023-05-07T08:56:15;6.65;;;3.60;;
10045;SDS011;5063;50.878;4.742;2023-05-07T08:58:42;4.50;;;3.25;;
10045;SDS011;5063;50.878;4.742;2023-05-07T09:01:09;6.80;;;3.28;;
10045;SDS011;5063;50.878;4.742;2023-05-07T09:03:38;6.72;;;3.13;;
10045;SDS011;5063;50.878;4.742;2023-05-07T09:06:04;7.47;;;3.47;;
10045;SDS011;5063;50.878;4.742;2023-05-07T09:08:32;8.40;;;3.50;;
10045;SDS011;5063;50.878;4.742;2023-05-07T09:10:58;7.70;;;3.25;;
10045;SDS011;5063;50.878;4.742;2023-05-07T09:13:24;5.60;;;3.37;;
10045;SDS011;5063;50.878;4.742;2023-05-07T09:15:49;4.20;;;2.83;;
10045;SDS011;5063;50.878;4.742;2023-05-07T09:18:15;5.35;;;2.70;;
10045;SDS011;5063;50.878;4.742;2023-05-07T09:20:41;4.43;;;3.00;;
10045;SDS011;5063;50.878;4.742;2023-05-07T09:23:07;5.03;;;3.05;;
10045;SDS011;5063;50.878;4.742;2023-05-07T09:25:34;7.65;;;2.92;;
10045;SDS011;5063;50.878;4.742;2023-05-07T09:28:01;5.03;;;2.63;;
10045;SDS011;5063;50.878;4.742;2023-05-07T09:30:28;7.43;;;2.65;;
10045;SDS011;5063;50.878;4.742;2023-05-07T09:32:55;4.47;;;2.42;;
10045;SDS011;5063;50.878;4.742;2023-05-07T09:35:22;6.90;;;2.40;;
10045;SDS011;5063;50.878;4.742;2023-05-07T09:37:55;4.22;;;2.35;;
10045;SDS011;5063;50.878;4.742;2023-05-07T09:42:51;4.93;;;2.55;;
10045;SDS011;5063;50.878;4.742;2023-05-07T09:45:26;3.67;;;2.80;;
10045;SDS011;5063;50.878;4.742;2023-05-07T09:47:56;5.15;;;2.72;;
10045;SDS011;5063;50.878;4.742;2023-05-07T09:50:26;5.57;;;2.47;;
10045;SDS011;5063;50.878;4.742;2023-05-07T09:53:01;4.38;;;2.88;;
10045;SDS011;5063;50.878;4.742;2023-05-07T09:55:28;3.33;;;2.20;;
10045;SDS011;5063;50.878;4.742;2023-05-07T09:57:54;6.47;;;2.90;;
10045;SDS011;5063;50.878;4.742;2023-05-07T10:00:20;5.07;;;2.72;;
10045;SDS011;5063;50.878;4.742;2023-05-07T10:02:51;4.90;;;2.70;;
10045;SDS011;5063;50.878;4.742;2023-05-07T10:05:17;5.55;;;2.92;;
10045;SDS011;5063;50.878;4.742;2023-05-07T10:07:45;11.23;;;2.85;;
10045;SDS011;5063;50.878;4.742;2023-05-07T10:10:11;5.88;;;2.63;;
10045;SDS011;5063;50.878;4.742;2023-05-07T10:12:37;6.05;;;2.70;;
10045;SDS011;5063;50.878;4.742;2023-05-07T10:17:31;5.47;;;2.60;;
10045;SDS011;5063;50.878;4.742;2023-05-07T10:20:02;3.45;;;2.65;;
10045;SDS011;5063;50.878;4.742;2023-05-07T10:22:30;5.10;;;3.05;;
10045;SDS011;5063;50.878;4.742;2023-05-07T10:25:02;5.10;;;2.80;;
10045;SDS011;5063;50.878;4.742;2023-05-07T10:27:31;6.43;;;2.78;;
10045;SDS011;5063;50.878;4.742;2023-05-07T10:32:39;4.82;;;2.95;;
10045;SDS011;5063;50.878;4.742;2023-05-07T10:35:31;5.35;;;3.03;;
10045;SDS011;5063;50.878;4.742;2023-05-07T10:38:01;4.15;;;3.08;;
10045;SDS011;5063;50.878;4.742;2023-05-07T10:40:28;8.32;;;3.38;;
10045;SDS011;5063;50.878;4.742;2023-05-07T10:42:58;5.00;;;2.88;;
10045;SDS011;5063;50.878;4.742;2023-05-07T10:45:26;2.97;;;1.73;;
10045;SDS011;5063;50.878;4.742;2023-05-07T10:48:05;6.63;;;2.03;;
10045;SDS011;5063;50.878;4.742;2023-05-07T10:50:33;4.78;;;2.03;;
10045;SDS011;5063;50.878;4.742;2023-05-07T10:55:44;3.05;;;1.85;;
10045;SDS011;5063;50.878;4.742;2023-05-07T10:58:24;3.83;;;2.50;;
10045;SDS011;5063;50.878;4.742;2023-05-07T11:00:57;2.72;;;1.98;;
10045;SDS011;5063;50.878;4.742;2023-05-07T11:03:27;7.53;;;2.60;;
10045;SDS011;5063;50.878;4.742;2023-05-07T11:06:13;6.13;;;2.85;;
10045;SDS011;5063;50.878;4.742;2023-05-07T11:11:18;4.55;;;2.70;;
10045;SDS011;5063;50.878;4.742;2023-05-07T11:13:47;6.18;;;3.20;;
10045;SDS011;5063;50.878;4.742;2023-05-07T11:24:01;4.90;;;2.75;;
10045;SDS011;5063;50.878;4.742;2023-05-07T11:26:28;3.38;;;2.50;;
10045;SDS011;5063;50.878;4.742;2023-05-07T11:28:56;4.43;;;2.42;;
10045;SDS011;5063;50.878;4.742;2023-05-07T11:31:26;5.20;;;2.42;;
10045;SDS011;5063;50.878;4.742;2023-05-07T11:33:53;5.60;;;2.28;;
10045;SDS011;5063;50.878;4.742;2023-05-07T11:36:21;3.78;;;2.42;;
10045;SDS011;5063;50.878;4.742;2023-05-07T11:38:48;4.03;;;2.05;;
10045;SDS011;5063;50.878;4.742;2023-05-07T11:41:15;2.92;;;2.25;;
10045;SDS011;5063;50.878;4.742;2023-05-07T11:43:54;3.72;;;2.30;;
10045;SDS011;5063;50.878;4.742;2023-05-07T11:46:21;3.58;;;2.15;;
10045;SDS011;5063;50.878;4.742;2023-05-07T11:48:47;3.97;;;1.80;;
10045;SDS011;5063;50.878;4.742;2023-05-07T11:51:13;3.10;;;1.40;;
10045;SDS011;5063;50.878;4.742;2023-05-07T11:53:45;3.30;;;1.88;;
10045;SDS011;5063;50.878;4.742;2023-05-07T11:56:14;3.80;;;1.90;;
10045;SDS011;5063;50.878;4.742;2023-05-07T11:58:42;4.93;;;1.80;;
10045;SDS011;5063;50.878;4.742;2023-05-07T12:01:09;2.45;;;1.60;;
10045;SDS011;5063;50.878;4.742;2023-05-07T12:03:37;4.57;;;1.92;;
10045;SDS011;5063;50.878;4.742;2023-05-07T12:06:05;5.03;;;1.90;;
10045;SDS011;5063;50.878;4.742;2023-05-07T12:08:31;4.45;;;1.70;;
10045;SDS011;5063;50.878;4.742;2023-05-07T12:10:58;2.45;;;1.35;;
10045;SDS011;5063;50.878;4.742;2023-05-07T12:13:24;3.72;;;1.50;;
10045;SDS011;5063;50.878;4.742;2023-05-07T12:15:54;4.82;;;1.98;;
10045;SDS011;5063;50.878;4.742;2023-05-07T12:18:21;4.35;;;1.95;;
10045;SDS011;5063;50.878;4.742;2023-05-07T12:20:48;3.22;;;1.70;;
10045;SDS011;5063;50.878;4.742;2023-05-07T12:23:14;2.85;;;1.80;;
10045;SDS011;5063;50.878;4.742;2023-05-07T12:25:41;5.03;;;2.13;;
10045;SDS011;5063;50.878;4.742;2023-05-07T12:28:14;3.35;;;1.45;;
10045;SDS011;5063;50.878;4.742;2023-05-07T12:30:44;3.30;;;1.92;;
10045;SDS011;5063;50.878;4.742;2023-05-07T12:33:11;3.80;;;1.70;;
10045;SDS011;5063;50.878;4.742;2023-05-07T12:35:41;1.77;;;1.20;;
10045;SDS011;5063;50.878;4.742;2023-05-07T12:38:09;2.17;;;1.33;;
10045;SDS011;5063;50.878;4.742;2023-05-07T12:40:40;3.13;;;1.35;;
10045;SDS011;5063;50.878;4.742;2023-05-07T12:43:07;2.33;;;1.58;;
10045;SDS011;5063;50.878;4.742;2023-05-07T12:45:36;3.42;;;1.60;;
10045;SDS011;5063;50.878;4.742;2023-05-07T12:48:06;3.40;;;1.27;;
10045;SDS011;5063;50.878;4.742;2023-05-07T12:50:32;2.10;;;1.60;;
10045;SDS011;5063;50.878;4.742;2023-05-07T12:52:58;1.65;;;1.30;;
10045;SDS011;5063;50.878;4.742;2023-05-07T12:55:24;3.60;;;1.67;;
10045;SDS011;5063;50.878;4.742;2023-05-07T12:57:51;3.30;;;1.80;;
10045;SDS011;5063;50.878;4.742;2023-05-07T13:00:31;2.72;;;1.38;;
10045;SDS011;5063;50.878;4.742;2023-05-07T13:02:58;3.03;;;1.45;;
10045;SDS011;5063;50.878;4.742;2023-05-07T13:05:24;1.73;;;1.23;;
10045;SDS011;5063;50.878;4.742;2023-05-07T13:07:53;2.40;;;1.40;;
10045;SDS011;5063;50.878;4.742;2023-05-07T13:10:20;2.45;;;1.50;;
10045;SDS011;5063;50.878;4.742;2023-05-07T13:12:46;1.55;;;1.25;;
10045;SDS011;5063;50.878;4.742;2023-05-07T13:15:12;3.05;;;1.70;;
10045;SDS011;5063;50.878;4.742;2023-05-07T13:17:38;2.92;;;1.35;;
10045;SDS011;5063;50.878;4.742;2023-05-07T13:20:04;2.00;;;1.50;;
10045;SDS011;5063;50.878;4.742;2023-05-07T13:22:31;1.92;;;1.30;;
10045;SDS011;5063;50.878;4.742;2023-05-07T13:24:57;3.08;;;1.63;;
10045;SDS011;5063;50.878;4.742;2023-05-07T13:27:22;1.90;;;1.30;;
10045;SDS011;5063;50.878;4.742;2023-05-07T13:29:48;5.38;;;2.13;;
10045;SDS011;5063;50.878;4.742;2023-05-07T13:32:14;1.88;;;1.58;;
10045;SDS011;5063;50.878;4.742;2023-05-07T13:34:40;4.28;;;1.77;;
10045;SDS011;5063;50.878;4.742;2023-05-07T13:37:06;2.72;;;1.80;;
10045;SDS011;5063;50.878;4.742;2023-05-07T13:39:32;2.47;;;1.60;;
10045;SDS011;5063;50.878;4.742;2023-05-07T13:41:58;2.90;;;1.67;;
10045;SDS011;5063;50.878;4.742;2023-05-07T13:44:24;3.20;;;1.60;;
10045;SDS011;5063;50.878;4.742;2023-05-07T13:46:51;2.22;;;1.60;;
10045;SDS011;5063;50.878;4.742;2023-05-07T13:49:17;1.95;;;1.52;;
10045;SDS011;5063;50.878;4.742;2023-05-07T13:51:42;2.83;;;1.65;;
10045;SDS011;5063;50.878;4.742;2023-05-07T13:54:08;2.40;;;1.55;;
10045;SDS011;5063;50.878;4.742;2023-05-07T13:56:34;2.97;;;1.42;;
10045;SDS011;5063;50.878;4.742;2023-05-07T13:59:00;2.33;;;1.60;;
10045;SDS011;5063;50.878;4.742;2023-05-07T14:01:26;3.75;;;1.70;;
10045;SDS011;5063;50.878;4.742;2023-05-07T14:03:51;3.55;;;1.85;;
10045;SDS011;5063;50.878;4.742;2023-05-07T14:06:18;2.17;;;1.70;;
10045;SDS011;5063;50.878;4.742;2023-05-07T14:08:44;3.45;;;2.10;;
10045;SDS011;5063;50.878;4.742;2023-05-07T14:11:10;1.88;;;1.70;;
10045;SDS011;5063;50.878;4.742;2023-05-07T14:13:36;3.72;;;1.95;;
10045;SDS011;5063;50.878;4.742;2023-05-07T14:16:02;3.67;;;1.90;;
10045;SDS011;5063;50.878;4.742;2023-05-07T14:18:29;2.53;;;1.58;;
10045;SDS011;5063;50.878;4.742;2023-05-07T14:20:54;2.58;;;1.80;;
10045;SDS011;5063;50.878;4.742;2023-05-07T14:23:20;3.92;;;2.03;;
10045;SDS011;5063;50.878;4.742;2023-05-07T14:25:51;4.35;;;1.95;;
10045;SDS011;5063;50.878;4.742;2023-05-07T14:28:18;4.10;;;1.92;;
10045;SDS011;5063;50.878;4.742;2023-05-07T14:30:44;3.85;;;2.00;;
10045;SDS011;5063;50.878;4.742;2023-05-07T14:33:10;4.57;;;2.17;;
10045;SDS011;5063;50.878;4.742;2023-05-07T14:35:37;4.75;;;2.28;;
10045;SDS011;5063;50.878;4.742;2023-05-07T14:38:02;3.33;;;2.17;;
10045;SDS011;5063;50.878;4.742;2023-05-07T14:40:28;4.03;;;1.80;;
10045;SDS011;5063;50.878;4.742;2023-05-07T14:42:54;5.32;;;2.28;;
10045;SDS011;5063;50.878;4.742;2023-05-07T14:45:22;3.10;;;1.75;;
10045;SDS011;5063;50.878;4.742;2023-05-07T14:47:47;2.47;;;1.88;;
10045;SDS011;5063;50.878;4.742;2023-05-07T14:50:13;2.83;;;2.03;;
10045;SDS011;5063;50.878;4.742;2023-05-07T14:52:39;3.30;;;1.70;;
10045;SDS011;5063;50.878;4.742;2023-05-07T14:55:05;4.15;;;2.35;;
10045;SDS011;5063;50.878;4.742;2023-05-07T14:57:31;3.05;;;1.98;;
10045;SDS011;5063;50.878;4.742;2023-05-07T15:00:00;3.40;;;2.22;;
10045;SDS011;5063;50.878;4.742;2023-05-07T15:02:26;4.40;;;1.80;;
10045;SDS011;5063;50.878;4.742;2023-05-07T15:04:52;3.92;;;2.30;;
10045;SDS011;5063;50.878;4.742;2023-05-07T15:07:18;5.82;;;2.75;;
10045;SDS011;5063;50.878;4.742;2023-05-07T15:09:44;3.72;;;2.15;;
10045;SDS011;5063;50.878;4.742;2023-05-07T15:12:10;3.38;;;2.00;;
10045;SDS011;5063;50.878;4.742;2023-05-07T15:14:37;3.25;;;2.05;;
10045;SDS011;5063;50.878;4.742;2023-05-07T15:17:03;2.45;;;1.80;;